Time;durP1;ratioP1;P1;durP2;ratioP2;P2;SDS_P1;SDS_P2;PMS_P1;PMS_P2;Temp;Humidity;BMP_temperature;BMP_pressure;BME280_temperature;BME280_humidity;BME280_pressure;Samples;Min_cycle;Max_cycle;Signal;HPM_P1;HPM_P2
2021/11/10 00:01:11;;;;;;;3.13;1.10;;;5.00;99.90;;;;;;5136568;27;20471;-55
2021/11/10 00:03:38;;;;;;;1.80;1.27;;;5.00;99.90;;;;;;5137704;27;20524;-53
2021/11/10 00:06:05;;;;;;;1.60;1.00;;;5.00;99.90;;;;;;5137761;27;20486;-53
2021/11/10 00:08:32;;;;;;;2.90;1.13;;;5.00;99.90;;;;;;5136614;27;20526;-55
2021/11/10 00:10:59;;;;;;;2.43;1.50;;;5.00;99.90;;;;;;5136168;27;20512;-53
2021/11/10 00:13:26;;;;;;;2.20;1.30;;;4.90;99.90;;;;;;5135803;27;20570;-56
2021/11/10 00:15:54;;;;;;;2.43;1.33;;;4.90;99.90;;;;;;5135554;27;20479;-55
2021/11/10 00:18:22;;;;;;;4.03;2.07;;;4.90;99.90;;;;;;5135397;27;20531;-51
2021/11/10 00:20:50;;;;;;;2.17;1.33;;;4.90;99.90;;;;;;5135503;27;20527;-55
2021/11/10 00:23:17;;;;;;;5.00;1.10;;;5.00;99.90;;;;;;5135621;27;20435;-55
2021/11/10 00:25:44;;;;;;;3.93;1.30;;;5.00;99.90;;;;;;5135960;27;20467;-55
2021/11/10 00:28:11;;;;;;;1.90;1.07;;;4.90;99.90;;;;;;5135911;27;20465;-52
2021/11/10 00:30:38;;;;;;;1.77;1.20;;;4.90;99.90;;;;;;5137129;27;20550;-53
2021/11/10 00:33:06;;;;;;;2.90;1.17;;;4.90;99.90;;;;;;5135927;27;20483;-55
2021/11/10 00:35:33;;;;;;;4.03;1.13;;;4.80;99.90;;;;;;5135756;27;20711;-55
2021/11/10 00:38:00;;;;;;;4.57;1.00;;;4.80;99.90;;;;;;5136968;27;20493;-56
2021/11/10 00:40:27;;;;;;;3.13;1.00;;;4.80;99.90;;;;;;5137047;27;20516;-52
2021/11/10 00:42:54;;;;;;;2.10;1.20;;;4.70;99.90;;;;;;5136934;27;20486;-54
2021/11/10 00:45:22;;;;;;;1.97;1.07;;;4.70;99.90;;;;;;5136938;27;20570;-55
2021/11/10 00:47:49;;;;;;;3.67;1.20;;;4.70;99.90;;;;;;5136731;27;20534;-56
2021/11/10 00:50:17;;;;;;;3.13;1.00;;;4.70;99.90;;;;;;5136780;27;20566;-54
2021/11/10 00:52:44;;;;;;;2.33;1.30;;;4.70;99.90;;;;;;5136674;27;20527;-54
2021/11/10 00:55:11;;;;;;;2.97;1.10;;;4.60;99.90;;;;;;5136731;27;20451;-56
2021/11/10 00:57:38;;;;;;;1.93;1.00;;;4.60;99.90;;;;;;5136981;27;20458;-55
2021/11/10 01:00:07;;;;;;;4.37;1.40;;;4.60;99.90;;;;;;5136927;27;20495;-56
2021/11/10 01:02:34;;;;;;;1.70;1.03;;;4.60;99.90;;;;;;5137085;27;20486;-54
2021/11/10 01:05:02;;;;;;;1.70;1.10;;;4.60;99.90;;;;;;5136728;27;20476;-51
2021/11/10 01:07:30;;;;;;;2.90;1.50;;;4.60;99.90;;;;;;5136455;27;20426;-49
2021/11/10 01:10:01;;;;;;;5.83;1.50;;;4.70;99.90;;;;;;5136360;27;20532;-54
2021/11/10 01:12:28;;;;;;;2.10;1.07;;;4.70;99.90;;;;;;5136812;27;20450;-52
2021/11/10 01:14:55;;;;;;;2.70;1.43;;;4.70;99.90;;;;;;5136630;27;20578;-54
2021/11/10 01:17:22;;;;;;;2.60;1.43;;;4.70;99.90;;;;;;5134288;27;20957;-53
2021/11/10 01:19:49;;;;;;;6.63;1.53;;;4.70;99.90;;;;;;5133791;27;20832;-55
2021/11/10 01:22:16;;;;;;;4.20;1.20;;;4.60;99.90;;;;;;5134730;27;20415;-55
2021/11/10 01:24:45;;;;;;;2.27;1.10;;;4.60;99.90;;;;;;5138922;27;20776;-52
2021/11/10 01:27:12;;;;;;;3.10;1.07;;;4.60;99.90;;;;;;5138350;27;20443;-54
2021/11/10 01:29:40;;;;;;;3.43;1.27;;;4.60;99.90;;;;;;5138545;27;20487;-55
2021/11/10 01:32:08;;;;;;;2.90;1.50;;;4.60;99.90;;;;;;5138244;27;20453;-54
2021/11/10 01:34:35;;;;;;;3.37;1.27;;;4.50;99.90;;;;;;5138406;27;20598;-56
2021/11/10 01:37:03;;;;;;;2.73;1.20;;;4.50;99.90;;;;;;5138896;27;20444;-54
2021/11/10 01:39:30;;;;;;;3.90;1.70;;;4.60;99.90;;;;;;5138961;27;20433;-54
2021/11/10 01:42:03;;;;;;;4.73;1.30;;;4.60;99.90;;;;;;5139390;27;20526;-51
2021/11/10 01:44:32;;;;;;;3.13;1.20;;;4.60;99.90;;;;;;5139289;27;20450;-56
2021/11/10 01:47:01;;;;;;;5.50;1.20;;;4.70;99.90;;;;;;5137542;27;20510;-53
2021/11/10 01:49:28;;;;;;;2.00;1.07;;;4.60;99.90;;;;;;5137530;27;20512;-54
2021/11/10 01:51:57;;;;;;;3.17;1.00;;;4.40;99.90;;;;;;5138135;27;20418;-55
2021/11/10 01:54:27;;;;;;;3.63;1.40;;;4.40;99.90;;;;;;5138006;27;20546;-53
2021/11/10 01:56:55;;;;;;;2.70;1.43;;;4.40;99.90;;;;;;5137912;27;20512;-56
2021/11/10 01:59:31;;;;;;;5.30;1.10;;;4.50;99.90;;;;;;5137899;27;21095;-51
2021/11/10 02:01:59;;;;;;;4.23;1.70;;;4.60;99.90;;;;;;5138951;27;20498;-54
2021/11/10 02:04:27;;;;;;;4.27;1.63;;;4.60;99.90;;;;;;5139645;27;20494;-53
2021/11/10 02:06:54;;;;;;;8.20;1.50;;;4.60;99.90;;;;;;5140155;27;20903;-55
2021/11/10 02:09:23;;;;;;;1.73;1.07;;;4.60;99.90;;;;;;5139440;27;20451;-51
2021/11/10 02:11:51;;;;;;;2.60;1.33;;;4.70;99.90;;;;;;5139608;27;20444;-54
2021/11/10 02:14:18;;;;;;;3.27;1.40;;;4.70;99.90;;;;;;5138175;27;20836;-55
2021/11/10 02:16:48;;;;;;;3.47;1.33;;;4.60;99.90;;;;;;5137921;27;20864;-54
2021/11/10 02:19:16;;;;;;;2.00;1.30;;;4.60;99.90;;;;;;5138049;27;20517;-54
2021/11/10 02:21:46;;;;;;;4.70;1.60;;;4.60;99.90;;;;;;5139005;27;20431;-56
2021/11/10 02:24:14;;;;;;;2.87;1.40;;;4.50;99.90;;;;;;5137009;27;20563;-53
2021/11/10 02:26:43;;;;;;;3.00;1.63;;;4.60;99.90;;;;;;5136417;27;20945;-53
2021/11/10 02:29:11;;;;;;;2.83;1.40;;;4.50;99.90;;;;;;5138002;27;20541;-53
2021/11/10 02:31:38;;;;;;;2.30;1.20;;;4.50;99.90;;;;;;5137764;27;20479;-51
2021/11/10 02:34:06;;;;;;;3.43;1.33;;;4.50;99.90;;;;;;5137838;27;20560;-54
2021/11/10 02:36:33;;;;;;;5.23;1.60;;;4.50;99.90;;;;;;5138394;27;20450;-52
2021/11/10 02:39:06;;;;;;;2.70;1.40;;;4.40;99.90;;;;;;5139153;27;20457;-55
2021/11/10 02:41:33;;;;;;;2.80;1.27;;;4.40;99.90;;;;;;5139343;27;20461;-53
2021/11/10 02:44:01;;;;;;;2.23;1.20;;;4.40;99.90;;;;;;5138600;27;20562;-54
2021/11/10 02:46:28;;;;;;;2.50;1.60;;;4.40;99.90;;;;;;5138157;27;20498;-54
2021/11/10 02:48:55;;;;;;;4.97;1.70;;;4.40;99.90;;;;;;5137826;27;20917;-55
2021/11/10 02:51:22;;;;;;;6.23;1.87;;;4.40;99.90;;;;;;5137854;27;20530;-53
2021/11/10 02:53:49;;;;;;;3.07;1.00;;;4.30;99.90;;;;;;5137829;27;20769;-54
2021/11/10 02:56:18;;;;;;;3.40;1.83;;;4.30;99.90;;;;;;5138989;27;20921;-55
2021/11/10 02:58:45;;;;;;;3.70;1.30;;;4.30;99.90;;;;;;5138918;27;20494;-55
2021/11/10 03:01:12;;;;;;;5.13;1.60;;;4.20;99.90;;;;;;5138974;27;20450;-54
2021/11/10 03:03:39;;;;;;;3.20;1.27;;;4.20;99.90;;;;;;5138594;27;20471;-56
2021/11/10 03:06:06;;;;;;;2.13;1.20;;;4.10;99.90;;;;;;5138911;27;20457;-56
2021/11/10 03:08:33;;;;;;;3.43;1.30;;;4.10;99.90;;;;;;5137359;27;20488;-55
2021/11/10 03:11:00;;;;;;;4.00;1.20;;;4.10;99.90;;;;;;5138486;27;20419;-55
2021/11/10 03:13:29;;;;;;;3.70;1.50;;;4.10;99.90;;;;;;5137973;27;20761;-55
2021/11/10 03:15:56;;;;;;;3.30;1.20;;;4.10;99.90;;;;;;5137939;27;20777;-55
2021/11/10 03:18:23;;;;;;;6.37;1.50;;;4.10;99.90;;;;;;5137102;27;20511;-53
2021/11/10 03:20:50;;;;;;;2.50;1.50;;;4.10;99.90;;;;;;5137281;27;20429;-54
2021/11/10 03:23:17;;;;;;;3.17;1.20;;;4.10;99.90;;;;;;5137966;27;20540;-52
2021/11/10 03:25:44;;;;;;;4.30;1.73;;;4.10;99.90;;;;;;5138208;27;20479;-56
2021/11/10 03:28:11;;;;;;;4.70;1.90;;;3.90;99.90;;;;;;5137707;27;20479;-55
2021/11/10 03:30:40;;;;;;;5.07;3.03;;;3.90;99.90;;;;;;5138240;27;20918;-50
2021/11/10 03:33:07;;;;;;;6.53;2.20;;;3.80;99.90;;;;;;5137849;27;20792;-52
2021/11/10 03:35:34;;;;;;;4.83;1.80;;;3.80;99.90;;;;;;5138316;27;20557;-54
2021/11/10 03:38:01;;;;;;;4.00;2.07;;;3.80;99.90;;;;;;5138223;27;20478;-54
2021/11/10 03:40:29;;;;;;;3.20;1.93;;;3.80;99.90;;;;;;5137862;27;20429;-53
2021/11/10 03:42:56;;;;;;;4.53;1.87;;;3.80;99.90;;;;;;5137916;27;20477;-55
2021/11/10 03:45:23;;;;;;;4.47;1.40;;;3.80;99.90;;;;;;5137613;27;20529;-53
2021/11/10 03:47:51;;;;;;;4.63;1.80;;;3.90;99.90;;;;;;5137183;27;20774;-52
2021/11/10 03:50:19;;;;;;;6.10;1.40;;;4.00;99.90;;;;;;5138240;27;20537;-54
2021/11/10 03:52:46;;;;;;;5.07;1.97;;;4.10;99.90;;;;;;5136245;27;20461;-54
2021/11/10 03:55:13;;;;;;;2.50;1.47;;;4.00;99.90;;;;;;5136076;27;20483;-55
2021/11/10 03:57:40;;;;;;;5.97;2.03;;;4.00;99.90;;;;;;5136743;27;20475;-54
2021/11/10 04:00:09;;;;;;;3.33;1.60;;;4.10;99.90;;;;;;5137093;27;20458;-54
2021/11/10 04:02:36;;;;;;;5.60;1.50;;;4.10;99.90;;;;;;5136862;27;20489;-52
2021/11/10 04:05:05;;;;;;;3.20;1.70;;;4.10;99.90;;;;;;5136913;27;20974;-55
2021/11/10 04:07:32;;;;;;;8.90;2.30;;;4.00;99.90;;;;;;5137535;27;20418;-51
2021/11/10 04:09:58;;;;;;;4.60;1.57;;;4.00;99.90;;;;;;5136859;27;20554;-50
2021/11/10 04:12:26;;;;;;;2.80;2.03;;;4.00;99.90;;;;;;5136612;27;20539;-59
2021/11/10 04:14:52;;;;;;;3.50;1.67;;;4.00;99.90;;;;;;5136621;27;20519;-55
2021/11/10 04:17:19;;;;;;;4.13;2.00;;;4.10;99.90;;;;;;5137214;27;20494;-55
2021/11/10 04:19:46;;;;;;;3.03;1.70;;;4.10;99.90;;;;;;5137154;27;20530;-52
2021/11/10 04:22:15;;;;;;;5.30;2.00;;;4.10;99.90;;;;;;5137093;27;20926;-55
2021/11/10 04:24:41;;;;;;;4.57;1.90;;;4.10;99.90;;;;;;5137189;27;20447;-54
2021/11/10 04:27:08;;;;;;;4.27;1.53;;;4.00;99.90;;;;;;5137345;27;20422;-53
2021/11/10 04:29:36;;;;;;;5.73;2.47;;;4.10;99.90;;;;;;5137357;27;20522;-54
2021/11/10 04:32:03;;;;;;;4.93;2.07;;;4.10;99.90;;;;;;5136105;27;20783;-53
2021/11/10 04:34:30;;;;;;;3.07;2.30;;;4.10;99.90;;;;;;5135817;27;20538;-54
2021/11/10 04:36:57;;;;;;;4.87;2.60;;;4.10;99.90;;;;;;5135811;27;20825;-55
2021/11/10 04:39:25;;;;;;;5.93;1.83;;;4.00;99.90;;;;;;5134997;27;20451;-54
2021/11/10 04:41:52;;;;;;;7.60;2.53;;;4.00;99.90;;;;;;5135772;27;20538;-54
2021/11/10 04:44:19;;;;;;;4.10;2.10;;;3.90;99.90;;;;;;5135229;27;20478;-55
2021/11/10 04:46:46;;;;;;;6.00;2.03;;;3.80;99.90;;;;;;5135144;27;20453;-55
2021/11/10 04:49:15;;;;;;;4.83;2.00;;;3.90;99.90;;;;;;5135817;27;20422;-55
2021/11/10 04:51:42;;;;;;;3.07;2.70;;;4.00;99.90;;;;;;5135720;27;20819;-53
2021/11/10 04:54:12;;;;;;;6.50;2.30;;;4.10;99.90;;;;;;5136405;27;20841;-52
2021/11/10 04:56:40;;;;;;;5.43;3.20;;;4.00;99.90;;;;;;5136342;27;20552;-53
2021/11/10 04:59:08;;;;;;;4.30;1.77;;;4.10;99.90;;;;;;5136068;27;20451;-54
2021/11/10 05:01:38;;;;;;;4.33;2.20;;;4.20;99.90;;;;;;5136519;27;20426;-54
2021/11/10 05:04:05;;;;;;;3.43;1.60;;;4.30;99.90;;;;;;5136702;28;20908;-57
2021/11/10 05:06:33;;;;;;;10.10;3.07;;;4.30;99.90;;;;;;5136874;27;20691;-57
2021/11/10 05:09:00;;;;;;;5.93;2.13;;;4.40;99.90;;;;;;5137080;27;20520;-55
2021/11/10 05:11:27;;;;;;;6.33;2.27;;;4.40;99.90;;;;;;5133857;27;20448;-53
2021/11/10 05:13:55;;;;;;;4.23;1.93;;;4.40;99.90;;;;;;5134159;27;20466;-52
2021/11/10 05:16:22;;;;;;;5.10;2.27;;;4.40;99.90;;;;;;5134757;27;20929;-56
2021/11/10 05:18:49;;;;;;;2.67;1.50;;;4.40;99.90;;;;;;5135506;27;20711;-56
2021/11/10 05:21:16;;;;;;;3.27;1.63;;;4.40;99.90;;;;;;5135210;27;20812;-53
2021/11/10 05:23:43;;;;;;;5.73;1.93;;;4.30;99.90;;;;;;5134914;27;20807;-54
2021/11/10 05:26:10;;;;;;;4.80;1.93;;;4.10;99.90;;;;;;5135350;27;20510;-56
2021/11/10 05:28:37;;;;;;;3.60;1.57;;;4.00;99.90;;;;;;5134969;27;20554;-56
2021/11/10 05:31:06;;;;;;;4.40;2.33;;;3.80;99.90;;;;;;5135570;27;20446;-54
2021/11/10 05:33:33;;;;;;;4.77;1.37;;;3.80;99.90;;;;;;5133795;28;20831;-54
2021/11/10 05:36:00;;;;;;;3.97;1.30;;;3.90;99.90;;;;;;5135206;28;20790;-53
2021/11/10 05:38:27;;;;;;;4.10;1.70;;;3.90;99.90;;;;;;5135914;28;20452;-55
2021/11/10 05:40:54;;;;;;;5.60;2.23;;;3.90;99.90;;;;;;5134641;27;20476;-54
2021/11/10 05:43:21;;;;;;;6.53;1.50;;;3.90;99.90;;;;;;5134915;27;20530;-52
2021/11/10 05:45:48;;;;;;;5.07;1.93;;;3.90;99.90;;;;;;5134170;27;20450;-53
2021/11/10 05:48:17;;;;;;;3.00;1.37;;;3.90;99.90;;;;;;5134202;27;20419;-56
2021/11/10 05:50:44;;;;;;;2.47;1.67;;;3.90;99.90;;;;;;5134318;27;20540;-55
2021/11/10 05:53:11;;;;;;;3.60;2.10;;;3.90;99.90;;;;;;5133719;27;20418;-55
2021/11/10 05:55:41;;;;;;;3.53;1.90;;;3.90;99.90;;;;;;5134454;28;20990;-57
2021/11/10 05:58:08;;;;;;;5.07;2.30;;;3.90;99.90;;;;;;5133773;27;20524;-55
2021/11/10 06:00:35;;;;;;;3.53;2.07;;;3.90;99.90;;;;;;5134131;27;20560;-53
2021/11/10 06:03:02;;;;;;;3.73;1.47;;;4.00;99.90;;;;;;5134203;28;20426;-51
2021/11/10 06:05:30;;;;;;;3.17;1.73;;;4.00;99.90;;;;;;5135798;27;20800;-52
2021/11/10 06:07:58;;;;;;;4.17;2.40;;;4.00;99.90;;;;;;5132704;27;20446;-54
2021/11/10 06:10:25;;;;;;;2.00;1.40;;;4.10;99.90;;;;;;5135480;27;20546;-52
2021/11/10 06:12:52;;;;;;;3.33;1.50;;;4.90;99.90;;;;;;5136639;27;20479;-54
2021/11/10 06:15:20;;;;;;;4.93;2.03;;;5.50;99.90;;;;;;5136698;27;20534;-55
2021/11/10 06:17:47;;;;;;;6.47;1.40;;;5.50;99.90;;;;;;5135749;27;20421;-55
2021/11/10 06:20:19;;;;;;;2.23;1.60;;;5.40;99.90;;;;;;5133790;27;20448;-54
2021/11/10 06:22:48;;;;;;;3.20;1.53;;;5.50;99.90;;;;;;5136825;27;20792;-54
2021/11/10 06:25:15;;;;;;;4.40;1.83;;;5.70;99.90;;;;;;5137019;27;20475;-52
2021/11/10 06:27:46;;;;;;;6.03;1.73;;;5.90;99.90;;;;;;5138041;27;20425;-52
2021/11/10 06:30:17;;;;;;;5.37;1.20;;;5.70;99.90;;;;;;5137271;27;20426;-54
2021/11/10 06:32:48;;;;;;;3.87;2.00;;;5.90;99.90;;;;;;5116393;28;20451;-54
2021/11/10 06:35:26;;;;;;;3.83;2.10;;;6.10;99.90;;;;;;5117276;28;20488;-52
2021/11/10 06:37:58;;;;;;;5.30;1.90;;;5.80;99.90;;;;;;5117280;28;20744;-50
2021/11/10 06:40:28;;;;;;;3.93;1.70;;;5.50;99.90;;;;;;5116244;28;20445;-50
2021/11/10 06:43:13;;;;;;;3.63;1.87;;;5.20;99.90;;;;;;5117163;28;20456;-56
2021/11/10 06:45:40;;;;;;;2.60;1.30;;;5.00;99.90;;;;;;5106739;28;20469;-54
2021/11/10 06:48:08;;;;;;;6.70;1.90;;;4.90;99.90;;;;;;5096112;28;20464;-56
2021/11/10 06:50:36;;;;;;;4.80;2.00;;;4.80;99.90;;;;;;5095969;28;20420;-52
2021/11/10 06:53:09;;;;;;;7.13;1.77;;;4.60;99.90;;;;;;5094717;28;20429;-52
2021/11/10 06:55:38;;;;;;;5.20;1.40;;;4.90;99.90;;;;;;5110503;28;20785;-56
2021/11/10 06:58:06;;;;;;;5.30;2.30;;;5.50;99.90;;;;;;5113502;28;20455;-53
2021/11/10 07:00:34;;;;;;;9.17;2.77;;;5.70;99.90;;;;;;5111921;28;20634;-54
2021/11/10 07:03:01;;;;;;;4.50;1.93;;;6.00;99.90;;;;;;5112897;28;20460;-52
2021/11/10 07:05:29;;;;;;;5.87;2.10;;;6.10;99.90;;;;;;5111432;28;20441;-50
2021/11/10 07:07:58;;;;;;;3.57;1.40;;;6.30;99.90;;;;;;5114287;28;20895;-53
2021/11/10 07:10:27;;;;;;;3.63;2.73;;;6.20;99.90;;;;;;5113683;28;20777;-51
2021/11/10 07:12:57;;;;;;;5.07;2.67;;;6.20;99.90;;;;;;5114162;28;20841;-49
2021/11/10 07:15:25;;;;;;;6.60;2.10;;;6.00;99.90;;;;;;5115474;28;20486;-53
2021/11/10 07:17:52;;;;;;;4.70;2.20;;;5.80;99.90;;;;;;5113390;28;20483;-51
2021/11/10 07:20:24;;;;;;;4.17;1.77;;;5.50;99.90;;;;;;5112659;28;20437;-52
2021/11/10 07:22:52;;;;;;;4.43;2.43;;;5.20;99.90;;;;;;5112404;28;20441;-53
2021/11/10 07:25:20;;;;;;;8.70;2.63;;;5.10;99.90;;;;;;5112672;28;20535;-52
2021/11/10 07:27:49;;;;;;;6.20;2.40;;;5.30;99.90;;;;;;5111598;28;20457;-53
2021/11/10 07:30:46;;;;;;;6.40;1.90;;;5.30;99.90;;;;;;5109526;28;20727;-52
2021/11/10 07:33:15;;;;;;;2.80;1.53;;;5.30;99.90;;;;;;5112670;28;20441;-52
2021/11/10 07:35:42;;;;;;;4.83;2.30;;;5.30;99.90;;;;;;5113184;28;20985;-52
2021/11/10 07:38:10;;;;;;;5.50;2.40;;;5.40;99.90;;;;;;5113118;28;20528;-52
2021/11/10 07:40:38;;;;;;;5.67;3.93;;;5.50;99.90;;;;;;5111396;28;20427;-55
2021/11/10 07:43:07;;;;;;;6.50;2.60;;;5.30;99.90;;;;;;5114240;28;20433;-54
2021/11/10 07:45:36;;;;;;;5.77;2.20;;;5.10;99.90;;;;;;5119203;27;20447;-54
2021/11/10 07:48:07;;;;;;;5.90;2.07;;;4.90;99.90;;;;;;5133810;27;20433;-54
2021/11/10 07:50:35;;;;;;;7.63;2.70;;;4.80;99.90;;;;;;5133140;27;20462;-51
2021/11/10 07:53:04;;;;;;;4.73;2.57;;;4.90;99.90;;;;;;5134036;27;20458;-51
2021/11/10 07:55:34;;;;;;;4.00;1.80;;;4.90;99.90;;;;;;5121261;27;20966;-55
2021/11/10 07:58:02;;;;;;;5.87;1.73;;;5.00;99.90;;;;;;5111516;28;20464;-52
2021/11/10 08:00:31;;;;;;;5.30;2.73;;;5.10;99.90;;;;;;5109638;28;20448;-54
2021/11/10 08:02:59;;;;;;;4.43;2.30;;;5.40;99.90;;;;;;5124563;27;20604;-55
2021/11/10 08:05:26;;;;;;;4.27;2.87;;;5.40;99.90;;;;;;5131991;27;20448;-55
2021/11/10 08:07:57;;;;;;;3.80;2.50;;;5.40;99.90;;;;;;5132055;27;20430;-56
2021/11/10 08:10:30;;;;;;;7.43;3.70;;;5.40;99.90;;;;;;5132605;27;20848;-55
2021/11/10 08:13:05;;;;;;;7.40;2.73;;;5.30;99.90;;;;;;5111457;27;20555;-55
2021/11/10 08:15:35;;;;;;;4.70;3.47;;;5.40;99.90;;;;;;5111339;28;20866;-52
2021/11/10 08:18:06;;;;;;;3.93;2.27;;;5.50;99.90;;;;;;5111933;28;20707;-54
2021/11/10 08:20:41;;;;;;;7.63;3.17;;;6.00;99.90;;;;;;5111264;28;20555;-53
2021/11/10 08:23:09;;;;;;;5.13;2.90;;;6.20;99.90;;;;;;5113470;28;20813;-56
2021/11/10 08:25:39;;;;;;;5.20;3.27;;;6.10;99.90;;;;;;5112803;28;20564;-55
2021/11/10 08:28:09;;;;;;;5.83;2.97;;;5.90;99.90;;;;;;5114025;28;20747;-55
2021/11/10 08:30:47;;;;;;;7.03;2.87;;;5.70;99.90;;;;;;5114004;28;20460;-56
2021/11/10 08:33:33;;;;;;;6.73;3.70;;;5.70;99.90;;;;;;5112252;28;20750;-54
2021/11/10 08:36:04;;;;;;;5.83;3.37;;;5.60;99.90;;;;;;5114606;28;20461;-55
2021/11/10 08:38:35;;;;;;;6.03;3.77;;;5.60;99.90;;;;;;5113400;28;20430;-54
2021/11/10 08:41:08;;;;;;;9.47;3.87;;;5.70;99.90;;;;;;5114187;28;20440;-56
2021/11/10 08:43:35;;;;;;;5.63;2.97;;;5.70;99.90;;;;;;5112633;28;20444;-54
2021/11/10 08:46:06;;;;;;;6.27;3.27;;;5.70;99.90;;;;;;5113163;28;20953;-55
2021/11/10 08:48:34;;;;;;;5.30;3.27;;;5.80;99.90;;;;;;5113798;28;20445;-56
2021/11/10 08:51:26;;;;;;;7.70;2.40;;;5.80;99.90;;;;;;5113298;28;20440;-54
2021/11/10 08:54:00;;;;;;;7.00;2.43;;;5.90;99.90;;;;;;5112811;28;20427;-55
2021/11/10 08:56:27;;;;;;;12.17;5.00;;;5.90;99.90;;;;;;5110461;28;20476;-54
2021/11/10 08:58:55;;;;;;;5.40;2.70;;;5.90;99.90;;;;;;5112307;28;20449;-55
2021/11/10 09:01:29;;;;;;;7.07;4.43;;;5.90;99.90;;;;;;5098266;28;20444;-54
2021/11/10 09:04:00;;;;;;;7.73;3.40;;;6.00;99.90;;;;;;5073264;28;20762;-55
2021/11/10 09:06:29;;;;;;;12.30;3.30;;;6.00;99.90;;;;;;5091305;28;20528;-54
2021/11/10 09:08:57;;;;;;;10.37;4.00;;;6.10;99.90;;;;;;5091963;28;20457;-55
2021/11/10 09:11:27;;;;;;;12.37;4.93;;;6.10;99.90;;;;;;5093541;28;20510;-55
2021/11/10 09:13:56;;;;;;;7.33;3.30;;;6.10;99.90;;;;;;5092577;28;20454;-53
2021/11/10 09:16:28;;;;;;;6.93;2.80;;;6.20;99.90;;;;;;5093895;28;20488;-54
2021/11/10 09:18:59;;;;;;;5.23;3.33;;;6.10;99.90;;;;;;5111009;28;20848;-55
2021/11/10 09:21:33;;;;;;;10.10;4.70;;;6.10;99.90;;;;;;5113521;28;20459;-55
2021/11/10 09:24:19;;;;;;;6.20;3.50;;;6.10;99.90;;;;;;5113906;28;20447;-54
2021/11/10 09:26:48;;;;;;;6.67;3.63;;;6.20;99.90;;;;;;5112909;28;20441;-55
2021/11/10 09:29:37;;;;;;;13.23;4.00;;;6.30;99.90;;;;;;5111198;28;20452;-52
2021/11/10 09:32:09;;;;;;;6.50;3.67;;;6.50;99.90;;;;;;5113844;28;20829;-52
2021/11/10 09:34:42;;;;;;;5.67;3.10;;;6.70;99.90;;;;;;5114353;28;20975;-57
2021/11/10 09:37:15;;;;;;;9.90;4.20;;;6.80;99.90;;;;;;5114776;28;20963;-54
2021/11/10 09:39:46;;;;;;;7.10;3.87;;;6.80;99.90;;;;;;5113041;28;20467;-55
2021/11/10 09:42:13;;;;;;;5.47;3.10;;;6.80;99.90;;;;;;5113220;28;20440;-57
2021/11/10 09:44:44;;;;;;;8.40;3.93;;;6.90;99.90;;;;;;5114218;28;20436;-55
2021/11/10 09:47:12;;;;;;;7.10;3.93;;;7.00;99.90;;;;;;5136645;27;20467;-57
2021/11/10 09:49:45;;;;;;;6.07;3.77;;;7.00;99.90;;;;;;5138879;27;20756;-57
2021/11/10 09:52:12;;;;;;;12.03;4.40;;;7.10;99.90;;;;;;5138324;27;20826;-57
2021/11/10 09:55:00;;;;;;;9.00;3.97;;;7.20;99.90;;;;;;5132405;27;20455;-56
2021/11/10 09:57:32;;;;;;;9.67;4.17;;;7.30;99.90;;;;;;5131551;27;20485;-58
2021/11/10 09:59:59;;;;;;;7.33;3.00;;;7.40;99.90;;;;;;5121448;27;20539;-59
2021/11/10 10:02:35;;;;;;;6.67;4.00;;;7.30;99.90;;;;;;5135704;27;20744;-59
2021/11/10 10:05:20;;;;;;;8.90;4.37;;;7.40;99.90;;;;;;5136195;27;20446;-60
2021/11/10 10:07:57;;;;;;;8.83;3.23;;;7.30;99.90;;;;;;5138352;27;21092;-61
2021/11/10 10:10:31;;;;;;;5.97;3.50;;;7.30;99.90;;;;;;5137238;27;20447;-59
2021/11/10 10:13:04;;;;;;;7.87;4.13;;;7.40;99.90;;;;;;5135433;27;20854;-60
2021/11/10 10:15:34;;;;;;;16.30;5.07;;;7.30;99.90;;;;;;5134556;27;20792;-59
2021/11/10 10:18:12;;;;;;;7.30;4.33;;;7.30;99.90;;;;;;5134966;27;20905;-60
2021/11/10 10:20:45;;;;;;;4.17;3.77;;;7.40;99.90;;;;;;5135153;27;20451;-60
2021/11/10 10:23:18;;;;;;;5.17;3.00;;;7.60;99.90;;;;;;5137334;27;20496;-61
2021/11/10 10:25:47;;;;;;;7.53;3.60;;;7.80;99.90;;;;;;5134911;27;20749;-61
2021/11/10 10:28:20;;;;;;;5.33;3.37;;;8.10;99.90;;;;;;5115835;28;20467;-61
2021/11/10 10:30:49;;;;;;;13.53;4.23;;;8.30;99.90;;;;;;5114320;28;20533;-60
2021/11/10 10:33:21;;;;;;;9.23;5.30;;;8.40;99.90;;;;;;5116423;28;20932;-60
2021/11/10 10:35:58;;;;;;;10.23;5.43;;;8.40;99.90;;;;;;5115504;28;20732;-61
2021/11/10 10:38:29;;;;;;;8.70;3.77;;;8.40;99.90;;;;;;5129314;27;20459;-55
2021/11/10 10:41:00;;;;;;;10.35;5.55;;;8.00;99.90;;;;;;5134115;27;20844;-55
2021/11/10 10:43:33;;;;;;;9.47;6.17;;;7.80;99.90;;;;;;5130261;27;20190;-56
2021/11/10 10:46:00;;;;;;;6.10;5.20;;;7.90;99.90;;;;;;5132658;27;20587;-57
2021/11/10 10:48:42;;;;;;;14.30;4.57;;;8.00;99.90;;;;;;5132944;27;20456;-57
2021/11/10 10:51:16;;;;;;;6.43;4.00;;;8.20;99.90;;;;;;5134203;27;20443;-56
2021/11/10 10:53:49;;;;;;;8.60;4.70;;;8.40;99.90;;;;;;5135308;27;20459;-56
2021/11/10 10:56:38;;;;;;;8.87;5.33;;;8.50;99.90;;;;;;5135447;27;20548;-54
2021/11/10 10:59:10;;;;;;;5.17;3.67;;;8.00;99.90;;;;;;5135086;27;20913;-56
2021/11/10 11:01:47;;;;;;;7.43;3.37;;;8.10;99.90;;;;;;5136334;27;20950;-55
2021/11/10 11:04:20;;;;;;;5.57;4.00;;;8.40;99.90;;;;;;5134460;27;20466;-57
2021/11/10 11:06:49;;;;;;;6.77;3.73;;;8.60;99.90;;;;;;5135585;27;20432;-56
2021/11/10 11:09:22;;;;;;;9.40;5.70;;;8.70;99.90;;;;;;5135360;27;20446;-55
2021/11/10 11:12:11;;;;;;;7.60;5.03;;;8.50;99.90;;;;;;5134691;27;20483;-56
2021/11/10 11:14:48;;;;;;;6.07;3.23;;;8.30;99.90;;;;;;5134757;27;20452;-56
2021/11/10 11:17:28;;;;;;;5.73;2.73;;;8.50;99.90;;;;;;5132312;27;20930;-56
2021/11/10 11:19:58;;;;;;;5.33;3.60;;;9.10;99.90;;;;;;5132851;27;20447;-55
2021/11/10 11:22:27;;;;;;;7.60;4.50;;;9.60;99.90;;;;;;5132407;27;20948;-57
2021/11/10 11:25:10;;;;;;;11.43;5.53;;;9.90;99.90;;;;;;5134317;27;20889;-53
2021/11/10 11:27:55;;;;;;;9.73;5.80;;;9.80;99.90;;;;;;5135003;27;20738;-56
2021/11/10 11:30:26;;;;;;;7.80;5.30;;;9.30;99.90;;;;;;5135007;27;20947;-54
2021/11/10 11:32:57;;;;;;;7.70;4.90;;;9.00;99.90;;;;;;5135166;27;20440;-51
2021/11/10 11:35:30;;;;;;;9.67;4.37;;;8.90;99.90;;;;;;5135762;27;20462;-55
2021/11/10 11:37:59;;;;;;;6.63;3.33;;;8.90;99.90;;;;;;5136104;27;20579;-55
2021/11/10 11:40:33;;;;;;;5.70;5.00;;;9.00;99.90;;;;;;5135712;27;20452;-55
2021/11/10 11:43:10;;;;;;;8.90;4.73;;;9.10;99.90;;;;;;5136784;27;20937;-53
2021/11/10 11:45:45;;;;;;;7.17;4.43;;;9.20;99.90;;;;;;5135010;27;20475;-55
2021/11/10 11:48:13;;;;;;;7.20;5.33;;;9.10;99.90;;;;;;5136297;27;20443;-56
2021/11/10 11:50:44;;;;;;;9.00;4.63;;;9.10;99.90;;;;;;5135788;27;20906;-57
2021/11/10 11:53:11;;;;;;;5.73;3.53;;;8.80;99.90;;;;;;5137096;27;20444;-57
2021/11/10 11:55:44;;;;;;;9.33;5.83;;;8.80;99.90;;;;;;5136338;27;20543;-57
2021/11/10 11:58:32;;;;;;;4.30;3.23;;;8.90;99.90;;;;;;5135979;27;20431;-58
2021/11/10 12:01:03;;;;;;;10.67;6.40;;;9.10;99.90;;;;;;5134445;27;20451;-57
2021/11/10 12:03:34;;;;;;;6.83;4.90;;;9.10;99.90;;;;;;5133602;27;20554;-57
2021/11/10 12:06:18;;;;;;;9.53;5.53;;;9.10;99.90;;;;;;5135229;27;20936;-57
2021/11/10 12:08:48;;;;;;;8.27;4.83;;;9.00;99.90;;;;;;5136595;27;20521;-58
2021/11/10 12:11:42;;;;;;;8.60;5.40;;;8.90;99.90;;;;;;5141827;27;20717;-56
2021/11/10 12:14:15;;;;;;;7.27;5.23;;;9.00;99.90;;;;;;5079753;27;20491;-57
2021/11/10 12:16:57;;;;;;;8.10;5.30;;;9.20;99.90;;;;;;5130243;27;20502;-58
2021/11/10 12:19:28;;;;;;;8.03;5.40;;;9.30;99.90;;;;;;5132421;27;20442;-56
2021/11/10 12:22:01;;;;;;;10.80;5.27;;;9.20;99.90;;;;;;5113640;28;20546;-58
2021/11/10 12:24:30;;;;;;;9.03;5.57;;;9.40;99.90;;;;;;5113199;28;20921;-57
2021/11/10 12:27:29;;;;;;;13.23;5.53;;;9.70;99.90;;;;;;5109127;28;20839;-58
2021/11/10 12:30:16;;;;;;;10.73;5.47;;;9.80;99.90;;;;;;5109053;28;20453;-56
2021/11/10 12:32:55;;;;;;;10.60;4.63;;;9.80;99.90;;;;;;5120617;27;20432;-57
2021/11/10 12:35:28;;;;;;;9.50;6.17;;;9.80;99.90;;;;;;5132167;27;20603;-56
2021/11/10 12:37:59;;;;;;;7.17;4.40;;;9.80;99.90;;;;;;5130151;27;21220;-58
2021/11/10 12:40:29;;;;;;;7.27;6.57;;;9.60;99.90;;;;;;5131448;27;20543;-56
2021/11/10 12:43:12;;;;;;;7.93;5.20;;;9.80;99.90;;;;;;5131407;27;20648;-55
2021/11/10 12:45:44;;;;;;;7.73;5.20;;;9.70;99.90;;;;;;5131069;27;20570;-56
2021/11/10 12:48:13;;;;;;;10.50;5.30;;;9.50;99.90;;;;;;5132518;27;20517;-57
2021/11/10 12:50:47;;;;;;;5.73;5.03;;;9.30;99.90;;;;;;5132727;27;20444;-58
2021/11/10 12:53:36;;;;;;;9.03;6.00;;;9.30;99.90;;;;;;5132885;27;20525;-58
2021/11/10 12:56:04;;;;;;;10.90;7.00;;;9.70;99.90;;;;;;5133333;27;20452;-57
2021/11/10 12:58:34;;;;;;;8.10;5.87;;;9.80;99.90;;;;;;5131012;27;20483;-54
2021/11/10 13:01:07;;;;;;;14.63;7.50;;;9.80;99.90;;;;;;5129190;27;20432;-59
2021/11/10 13:03:37;;;;;;;9.30;5.50;;;10.10;99.90;;;;;;5118571;27;20465;-58
2021/11/10 13:06:08;;;;;;;9.23;5.00;;;10.20;99.90;;;;;;5110916;28;21045;-55
2021/11/10 13:09:00;;;;;;;7.87;5.90;;;10.20;99.90;;;;;;5115084;28;20462;-58
2021/11/10 13:11:30;;;;;;;10.00;4.87;;;10.30;99.90;;;;;;5124988;27;20978;-56